createdAt,value
2019-02-08T00:08:53.757Z,86.76
2019-02-08T00:11:23.218Z,86.55
2019-02-08T00:13:52.950Z,86.76
2019-02-08T00:14:52.993Z,86.86
2019-02-08T00:18:45.906Z,86.96
2019-02-08T00:22:05.225Z,87.38
2019-02-08T00:23:07.045Z,86.86
2019-02-08T00:24:07.439Z,86.44
2019-02-08T00:25:06.434Z,86.86
2019-02-08T00:26:05.936Z,86.13
2019-02-08T00:27:05.567Z,86.76
2019-02-08T00:28:16.922Z,86.34
2019-02-08T00:29:05.919Z,87.07
2019-02-08T00:31:49.843Z,86.55
2019-02-08T00:32:52.360Z,86.13
2019-02-08T00:33:49.928Z,87.27
2019-02-08T00:34:49.923Z,86.03
2019-02-08T00:35:50.020Z,86.96
2019-02-08T00:36:49.950Z,86.24
2019-02-08T00:37:51.821Z,86.76
2019-02-08T00:38:49.935Z,87.38
2019-02-08T00:39:50.813Z,87.11
2019-02-08T00:40:50.054Z,87.32
2019-02-08T00:41:52.804Z,87.63
2019-02-08T00:42:51.105Z,86.90
2019-02-08T00:43:50.994Z,87.32
2019-02-08T00:44:52.465Z,86.44
2019-02-08T00:45:51.067Z,86.76
2019-02-08T00:46:50.783Z,86.24
2019-02-08T00:47:52.486Z,86.55
2019-02-08T00:48:49.898Z,86.65
2019-02-08T00:49:49.893Z,86.65
2019-02-08T00:50:50.859Z,86.24
2019-02-08T00:51:49.864Z,86.34
2019-02-08T00:52:50.860Z,86.59
2019-02-08T00:53:50.953Z,87.11
2019-02-08T00:54:51.283Z,87.52
2019-02-08T00:55:49.666Z,87.21
2019-02-08T00:56:49.749Z,87.17
2019-02-08T00:57:50.367Z,87.38
2019-02-08T00:58:49.864Z,87.27
2019-02-08T00:59:49.855Z,87.27
2019-02-08T01:00:49.735Z,87.11
2019-02-08T01:01:50.375Z,87.63
2019-02-08T01:02:49.680Z,87.52
2019-02-08T01:03:49.705Z,87.52
2019-02-08T01:04:49.681Z,87.32
2019-02-08T01:05:52.274Z,86.49
2019-02-08T01:06:49.648Z,87.32
2019-02-08T01:07:49.931Z,87.32
2019-02-08T01:08:50.291Z,87.73
2019-02-08T01:09:49.858Z,87.32
2019-02-08T01:15:18.853Z,87.63
2019-02-08T01:17:42.079Z,87.42
2019-02-08T01:18:42.225Z,87.63
2019-02-08T01:19:42.244Z,87.52
2019-02-08T01:20:43.196Z,87.98
2019-02-08T01:21:43.460Z,88.29
2019-02-08T01:22:43.447Z,87.88
2019-02-08T01:23:44.809Z,88.09
2019-02-08T01:24:42.271Z,88.50
2019-02-08T01:25:42.884Z,88.15
2019-02-08T01:26:42.088Z,87.98
2019-02-08T01:27:42.601Z,87.84
2019-02-08T01:28:42.908Z,87.77
2019-02-08T01:29:42.926Z,87.32
2019-02-08T01:30:42.305Z,87.63
2019-02-08T01:31:46.106Z,87.77
2019-02-08T01:32:44.477Z,87.88
2019-02-08T01:33:43.781Z,87.42
2019-02-08T01:34:43.061Z,87.56
2019-02-08T01:35:44.842Z,87.42
2019-02-08T01:36:42.173Z,87.63
2019-02-08T01:37:43.638Z,87.73
2019-02-08T01:38:43.130Z,87.73
2019-02-08T01:39:43.000Z,87.52
2019-02-08T01:40:42.907Z,87.42
2019-02-08T01:41:44.433Z,87.63
2019-02-08T01:42:42.664Z,87.32
2019-02-08T01:43:42.915Z,86.76
2019-02-08T01:44:42.036Z,86.86
2019-02-08T01:45:41.931Z,86.76
2019-02-08T01:46:42.912Z,86.96
2019-02-08T01:47:43.788Z,86.49
2019-02-08T01:48:42.788Z,86.80
2019-02-08T01:49:42.564Z,87.52
2019-02-08T01:50:42.059Z,87.11
2019-02-08T01:51:42.139Z,87.42
2019-02-08T01:52:45.009Z,87.73
2019-02-08T01:53:48.391Z,87.42
2019-02-08T01:54:45.554Z,87.11
2019-02-08T01:55:42.588Z,87.42
2019-02-08T01:56:44.034Z,87.27
2019-02-08T01:57:45.541Z,86.65
2019-02-08T01:58:42.001Z,86.44
2019-02-08T01:59:42.196Z,85.82
2019-02-08T02:00:47.136Z,86.65
2019-02-08T02:01:50.344Z,86.13
2019-02-08T02:02:43.176Z,86.65
2019-02-08T02:03:42.709Z,86.34
2019-02-08T02:04:42.638Z,86.24
2019-02-08T02:05:42.663Z,86.24
2019-02-08T02:08:50.218Z,86.44
2019-02-08T02:11:26.345Z,86.44
2019-02-08T02:12:26.454Z,86.65
2019-02-08T02:13:27.176Z,86.24
2019-02-08T02:14:26.437Z,86.24
2019-02-08T02:15:26.605Z,87.11
2019-02-08T02:16:27.865Z,86.38
2019-02-08T02:17:27.315Z,87.11
2019-02-08T02:18:26.897Z,87.52
2019-02-08T02:19:26.617Z,87.73
2019-02-08T02:20:26.586Z,87.25
2019-02-08T02:21:27.601Z,87.94
2019-02-08T02:22:30.462Z,87.88
2019-02-08T02:23:28.423Z,88.25
2019-02-08T02:24:28.768Z,87.98
2019-02-08T02:25:26.522Z,87.94
2019-02-08T02:26:27.272Z,87.73
2019-02-08T02:27:27.490Z,87.77
2019-02-08T02:28:27.293Z,87.42
2019-02-08T02:29:26.846Z,87.52
2019-02-08T02:30:26.880Z,87.42
2019-02-08T02:31:26.302Z,87.46
2019-02-08T02:32:26.475Z,88.09
2019-02-08T02:37:38.019Z,88.09
2019-02-08T02:38:38.128Z,88.40
2019-02-08T02:39:51.792Z,88.29
2019-02-08T02:42:00.408Z,87.77
2019-02-08T02:43:00.447Z,87.46
2019-02-08T02:44:10.893Z,88.64
2019-02-08T02:46:37.385Z,88.19
2019-02-08T02:48:59.565Z,88.85
2019-02-08T02:50:10.827Z,87.92
2019-02-08T02:50:59.622Z,88.96
2019-02-08T02:51:59.600Z,88.81
2019-02-08T02:52:59.581Z,88.60
2019-02-08T02:54:04.746Z,88.75
2019-02-08T02:56:11.072Z,89.27
2019-02-08T02:57:11.164Z,89.27
2019-02-08T02:59:21.769Z,89.58
2019-02-08T03:00:30.546Z,89.06
2019-02-08T03:03:56.960Z,89.48
2019-02-08T03:05:08.751Z,89.06
2019-02-08T03:06:06.278Z,89.17
2019-02-08T03:06:56.950Z,89.27
2019-02-08T03:07:56.949Z,90.04
2019-02-08T03:08:57.897Z,89.94
2019-02-08T03:09:57.293Z,90.04
2019-02-08T03:11:00.156Z,89.41
2019-02-08T03:11:57.042Z,90.20
2019-02-08T03:12:58.123Z,89.69
2019-02-08T03:14:00.718Z,89.89
2019-02-08T03:14:57.087Z,89.58
2019-02-08T03:15:59.886Z,89.27
2019-02-08T03:16:58.121Z,89.69
2019-02-08T03:17:57.063Z,89.69
2019-02-08T03:18:58.130Z,89.06
2019-02-08T03:19:57.430Z,89.02
2019-02-08T03:20:56.963Z,89.54
2019-02-08T03:21:57.481Z,89.27
2019-02-08T03:22:57.463Z,89.06
2019-02-08T03:23:57.635Z,89.89
2019-02-08T03:26:45.046Z,89.79
2019-02-08T03:30:34.366Z,90.00
2019-02-08T03:31:51.161Z,89.83
2019-02-08T03:34:10.271Z,89.83
2019-02-08T03:35:10.359Z,89.89
2019-02-08T03:36:10.347Z,90.35
2019-02-08T03:38:40.724Z,90.10
2019-02-08T03:39:40.755Z,90.00
2019-02-08T03:42:38.737Z,90.00
2019-02-08T03:45:52.346Z,89.89
2019-02-08T03:46:52.386Z,90.00
2019-02-08T03:47:53.413Z,90.00
2019-02-08T03:49:12.532Z,90.00
2019-02-08T03:49:52.435Z,90.31
2019-02-08T03:50:52.391Z,90.41
2019-02-08T03:51:52.368Z,90.20
2019-02-08T03:54:49.667Z,90.00
2019-02-08T03:55:59.070Z,90.31
2019-02-08T03:58:10.004Z,90.10
2019-02-08T03:59:10.028Z,90.00
2019-02-08T04:00:10.145Z,89.94
2019-02-08T04:01:10.098Z,90.66
2019-02-08T04:02:10.063Z,90.66
2019-02-08T04:03:13.930Z,91.18
2019-02-08T04:04:10.043Z,90.87
2019-02-08T04:05:10.067Z,91.39
2019-02-08T04:06:11.050Z,91.18
2019-02-08T04:07:10.152Z,91.08
2019-02-08T04:08:10.051Z,90.04
2019-02-08T04:09:10.037Z,90.31
2019-02-08T04:10:10.228Z,90.25
2019-02-08T04:11:11.578Z,90.52
2019-02-08T04:12:10.064Z,89.94
2019-02-08T04:13:21.860Z,90.14
2019-02-08T04:17:40.359Z,90.35
2019-02-08T04:18:50.834Z,90.45
2019-02-08T04:19:41.302Z,90.35
2019-02-08T04:24:35.683Z,91.18
2019-02-08T04:25:44.578Z,90.00
2019-02-08T04:26:35.673Z,90.41
2019-02-08T04:27:35.807Z,90.20
2019-02-08T04:28:35.704Z,90.31
2019-02-08T04:29:36.384Z,90.10
2019-02-08T04:30:39.180Z,89.89
2019-02-08T04:31:36.076Z,89.89
2019-02-08T04:32:37.901Z,90.00
2019-02-08T04:33:43.770Z,90.06
2019-02-08T04:39:12.972Z,89.89
2019-02-08T04:51:21.691Z,89.64
2019-02-08T04:55:22.905Z,89.89
2019-02-08T04:56:22.867Z,89.64
2019-02-08T04:57:23.081Z,89.23
2019-02-08T04:58:22.952Z,89.43
2019-02-08T04:59:23.102Z,89.43
2019-02-08T05:00:23.975Z,90.00
2019-02-08T05:01:24.061Z,89.43
2019-02-08T05:02:23.004Z,89.33
2019-02-08T05:03:22.951Z,89.43
2019-02-08T05:04:23.045Z,89.23
2019-02-08T05:05:22.966Z,89.43
2019-02-08T05:06:23.065Z,89.75
2019-02-08T05:07:22.995Z,89.33
2019-02-08T05:08:22.942Z,89.02
2019-02-08T05:09:24.618Z,89.02
2019-02-08T05:10:22.865Z,88.77
2019-02-08T05:11:22.774Z,89.64
2019-02-08T05:13:43.210Z,88.98
2019-02-08T05:14:43.340Z,89.33
2019-02-08T05:15:43.300Z,89.23
2019-02-08T05:16:43.224Z,88.92
2019-02-08T05:17:43.722Z,89.50
2019-02-08T05:18:43.395Z,89.33
2019-02-08T05:19:45.374Z,88.87
2019-02-08T05:20:43.340Z,89.02
2019-02-08T05:21:43.338Z,89.70
2019-02-08T05:22:43.317Z,89.64
2019-02-08T05:23:43.867Z,89.64
2019-02-08T05:24:45.989Z,89.54
2019-02-08T05:25:43.377Z,89.33
2019-02-08T05:26:43.280Z,89.54
2019-02-08T05:27:43.230Z,89.43
2019-02-08T05:28:43.137Z,89.02
2019-02-08T05:29:43.243Z,89.02
2019-02-08T05:32:03.527Z,89.54
2019-02-08T05:33:12.441Z,89.23
2019-02-08T05:34:12.522Z,89.64
2019-02-08T05:35:03.607Z,89.64
2019-02-08T05:36:04.613Z,89.50
2019-02-08T05:37:04.110Z,89.12
2019-02-08T05:40:36.672Z,88.77
2019-02-08T05:41:36.685Z,87.94
2019-02-08T05:43:57.802Z,88.81
2019-02-08T05:44:57.982Z,89.23
2019-02-08T05:47:39.274Z,89.33
2019-02-08T05:48:47.780Z,89.23
2019-02-08T05:49:55.740Z,89.60
2019-02-08T05:52:06.061Z,88.15
2019-02-08T05:53:06.600Z,88.56
2019-02-08T05:54:07.163Z,88.81
2019-02-08T05:55:05.636Z,88.77
2019-02-08T05:56:05.608Z,89.23
2019-02-08T05:57:05.705Z,88.77
2019-02-08T05:58:05.821Z,88.56
2019-02-08T05:59:06.470Z,88.35
2019-02-08T06:00:07.413Z,88.77
2019-02-08T06:01:10.361Z,88.56
2019-02-08T06:02:06.971Z,88.25
2019-02-08T06:03:07.449Z,88.56
2019-02-08T06:04:05.624Z,88.60
2019-02-08T06:05:10.804Z,88.81
2019-02-08T06:06:18.120Z,88.81
2019-02-08T06:12:42.894Z,89.43
2019-02-08T06:13:44.715Z,88.92
2019-02-08T06:14:44.291Z,88.15
2019-02-08T06:15:43.864Z,87.88
2019-02-08T06:16:43.176Z,88.46
2019-02-08T06:17:44.743Z,88.60
2019-02-08T06:18:43.844Z,87.98
2019-02-08T06:19:43.188Z,89.08
2019-02-08T06:20:43.004Z,88.92
2019-02-08T06:21:43.132Z,89.64
2019-02-08T06:22:43.662Z,89.54
2019-02-08T06:23:42.958Z,88.92
2019-02-08T06:24:43.046Z,89.70
2019-02-08T06:25:44.043Z,89.70
2019-02-08T06:26:43.755Z,89.54
2019-02-08T06:27:42.924Z,88.98
2019-02-08T06:28:42.859Z,88.56
2019-02-08T06:29:42.816Z,88.25
2019-02-08T06:30:43.046Z,88.35
2019-02-08T06:35:47.145Z,88.35
2019-02-08T06:36:47.224Z,88.46
2019-02-08T06:37:48.825Z,88.15
2019-02-08T06:38:47.960Z,88.67
2019-02-08T06:39:48.232Z,88.56
2019-02-08T06:40:53.498Z,88.81
2019-02-08T06:41:47.478Z,88.25
2019-02-08T06:44:46.996Z,88.25
2019-02-08T06:47:08.925Z,88.46
2019-02-08T06:48:08.989Z,87.94
2019-02-08T06:49:09.039Z,88.50
2019-02-08T06:50:12.829Z,89.08
2019-02-08T06:51:10.855Z,88.81
2019-02-08T06:52:10.755Z,89.12
2019-02-08T06:53:09.059Z,88.67
2019-02-08T06:54:09.074Z,88.67
2019-02-08T06:55:11.164Z,88.67
2019-02-08T06:56:09.134Z,88.77
2019-02-08T06:57:09.084Z,88.04
2019-02-08T06:58:10.780Z,88.35
2019-02-08T06:59:09.755Z,88.15
2019-02-08T07:00:09.321Z,88.42
2019-02-08T07:01:21.065Z,87.90
2019-02-08T07:02:10.825Z,87.69
2019-02-08T07:03:12.195Z,87.79
2019-02-08T07:04:12.734Z,87.59
2019-02-08T07:05:08.933Z,87.79
2019-02-08T07:06:09.088Z,87.48
2019-02-08T07:07:08.919Z,87.79
2019-02-08T07:08:12.911Z,88.10
2019-02-08T07:09:09.197Z,88.25
2019-02-08T07:10:10.321Z,88.31
2019-02-08T07:11:10.669Z,87.27
2019-02-08T07:14:06.046Z,87.90
2019-02-08T08:07:27.331Z,77.84
2019-02-08T08:08:42.665Z,78.61
2019-02-08T08:10:48.925Z,79.54
2019-02-08T08:14:26.101Z,78.43
2019-02-08T08:16:57.881Z,78.99
2019-02-08T08:17:58.647Z,79.33
2019-02-08T08:20:31.357Z,78.88
2019-02-08T08:21:31.551Z,79.09
2019-02-08T08:22:32.317Z,78.67
2019-02-08T08:23:32.195Z,78.12
2019-02-08T08:24:33.567Z,77.56
2019-02-08T08:25:34.152Z,73.36
2019-02-08T08:26:40.724Z,73.64
2019-02-08T08:27:42.966Z,73.77
2019-02-08T10:17:19.507Z,56.48
2019-02-08T10:21:37.567Z,52.98
2019-02-08T10:22:38.359Z,53.21
2019-02-08T10:23:37.739Z,55.84
2019-02-08T10:24:38.147Z,55.23
2019-02-08T10:25:38.396Z,55.56
2019-02-08T10:29:14.937Z,54.77
2019-02-08T10:32:44.517Z,53.19
2019-02-08T10:33:44.538Z,53.59
2019-02-08T10:34:46.551Z,52.96
2019-02-08T10:37:47.480Z,55.28
2019-02-08T10:38:48.480Z,55.71
2019-02-08T10:39:48.936Z,55.74
2019-02-08T10:40:57.971Z,56.92
2019-02-08T11:06:42.479Z,61.87
2019-02-08T11:07:43.819Z,60.17
2019-02-08T11:08:43.219Z,59.97
2019-02-08T11:09:45.668Z,59.43
2019-02-08T11:10:45.776Z,60.28
2019-02-08T11:15:27.953Z,63.40
2019-02-08T11:16:29.190Z,63.71
2019-02-08T11:17:30.125Z,63.71
2019-02-08T11:18:27.998Z,64.36
2019-02-08T11:19:28.343Z,63.40
2019-02-08T11:20:29.436Z,62.75
2019-02-08T11:21:36.768Z,62.65
2019-02-08T11:22:28.154Z,62.62
2019-02-08T11:24:52.438Z,61.87
2019-02-08T11:25:58.847Z,61.57
2019-02-08T11:26:54.291Z,61.49
2019-02-08T11:28:07.249Z,62.45
2019-02-08T11:28:54.651Z,62.85
2019-02-08T11:30:13.948Z,63.47
2019-02-08T11:30:58.387Z,62.96
2019-02-08T11:31:53.128Z,61.57
2019-02-08T11:32:57.917Z,60.92
2019-02-08T11:33:54.008Z,60.69
2019-02-08T11:35:02.893Z,59.30
2019-02-08T11:35:58.457Z,57.58
2019-02-08T11:37:06.922Z,55.38
2019-02-08T11:37:54.760Z,55.36
2019-02-08T11:38:54.492Z,56.63
2019-02-08T11:39:52.901Z,57.33
2019-02-08T11:40:54.015Z,59.08
2019-02-08T11:41:52.706Z,60.51
2019-02-08T11:42:54.255Z,60.85
2019-02-08T11:43:52.454Z,61.57
2019-02-08T11:44:58.194Z,62.45
2019-02-08T11:45:54.148Z,63.06
2019-02-08T11:46:52.359Z,63.40
2019-02-08T11:48:22.614Z,64.07
2019-02-08T11:48:53.482Z,65.72
2019-02-08T11:51:34.535Z,65.89
2019-02-08T11:52:34.878Z,65.48
2019-02-08T12:00:26.501Z,65.14
2019-02-08T13:45:20.290Z,65.60
2019-02-08T13:52:05.561Z,63.72
2019-02-08T13:55:40.894Z,63.82
2019-02-08T13:56:40.840Z,63.90
2019-02-08T13:57:42.582Z,63.25
2019-02-08T13:58:43.690Z,63.49
2019-02-08T13:59:42.291Z,63.39
2019-02-08T14:00:42.047Z,64.23
2019-02-08T14:08:48.018Z,66.63
2019-02-08T14:11:07.653Z,66.25
2019-02-08T14:14:11.897Z,66.55
2019-02-08T14:29:54.659Z,65.39
2019-02-08T14:30:54.870Z,65.80
2019-02-08T14:32:04.834Z,66.22
2019-02-08T14:32:55.896Z,65.53
2019-02-08T14:33:54.978Z,66.69
2019-02-08T14:35:04.437Z,66.28
2019-02-08T14:35:55.785Z,66.01
2019-02-08T14:36:55.591Z,62.27
2019-02-08T14:37:55.467Z,59.63
2019-02-08T14:38:54.600Z,58.40
2019-02-08T14:39:57.872Z,57.29
2019-02-08T14:40:54.753Z,56.56
2019-02-08T14:41:54.789Z,54.54
2019-02-08T14:42:54.744Z,53.88
2019-02-08T14:43:55.538Z,52.96
2019-02-08T14:44:54.681Z,52.10
2019-02-08T14:48:50.065Z,58.43
2019-02-08T14:52:36.401Z,57.02
2019-02-08T14:54:54.313Z,59.68
2019-02-08T14:57:23.929Z,63.49
2019-02-08T14:58:23.959Z,63.34
2019-02-08T14:59:24.875Z,64.60
2019-02-08T15:02:06.737Z,66.07
2019-02-08T15:03:16.857Z,66.07
2019-02-08T15:04:07.668Z,65.66
2019-02-08T15:59:21.491Z,68.94
2019-02-08T16:00:32.491Z,68.94
2019-02-08T16:01:21.503Z,69.15
2019-02-08T16:02:21.490Z,68.84
2019-02-08T16:03:21.436Z,69.04
2019-02-08T16:04:21.613Z,69.07
2019-02-08T16:05:21.430Z,68.98
2019-02-08T16:06:22.178Z,68.66
2019-02-08T16:07:21.426Z,68.53
2019-02-08T16:08:21.492Z,68.84
2019-02-08T16:09:21.481Z,68.74
2019-02-08T16:10:23.237Z,68.66
2019-02-08T16:11:21.533Z,68.74
2019-02-08T16:13:37.863Z,68.56
2019-02-08T16:16:24.429Z,68.87
2019-02-08T16:17:25.413Z,68.63
2019-02-08T16:18:33.442Z,68.87
2019-02-08T16:19:24.507Z,68.77
2019-02-08T16:20:24.447Z,69.07
2019-02-08T16:21:24.407Z,68.66
2019-02-08T16:22:24.459Z,68.87
2019-02-08T16:23:24.480Z,68.87
2019-02-08T16:24:24.635Z,68.46
2019-02-08T16:25:25.385Z,68.87
2019-02-08T16:26:25.267Z,68.66
2019-02-08T16:27:24.862Z,68.66
2019-02-08T16:28:29.533Z,68.77
2019-02-08T16:29:25.286Z,68.98
2019-02-08T16:30:24.659Z,68.77
2019-02-08T16:31:25.191Z,68.77
2019-02-08T16:47:18.723Z,69.28
2019-02-08T16:48:18.842Z,69.07
2019-02-08T16:49:20.587Z,68.77
2019-02-08T16:50:23.742Z,68.77
2019-02-08T16:51:22.656Z,68.77
2019-02-08T16:52:19.733Z,68.66
2019-02-08T16:53:24.741Z,68.77
2019-02-08T16:54:18.977Z,68.98
2019-02-08T16:55:22.263Z,69.18
2019-02-08T16:56:18.840Z,68.98
2019-02-08T16:57:19.590Z,69.38
2019-02-08T16:59:49.752Z,69.28
2019-02-08T17:02:17.192Z,69.79
2019-02-08T17:10:44.492Z,69.79
2019-02-08T17:11:45.424Z,69.59
2019-02-08T17:12:49.540Z,69.79
2019-02-08T17:13:44.561Z,70.00
2019-02-08T17:14:44.468Z,69.79
2019-02-08T17:15:44.619Z,70.10
2019-02-08T17:19:21.013Z,69.83
2019-02-08T17:20:20.333Z,70.00
2019-02-08T17:21:20.485Z,69.38
2019-02-08T17:23:22.937Z,70.00
2019-02-08T17:24:32.529Z,69.90
2019-02-08T17:25:22.647Z,69.49
2019-02-08T17:26:22.051Z,70.00
2019-02-08T17:27:22.486Z,70.24
2019-02-08T17:28:21.890Z,70.10
2019-02-08T17:29:21.834Z,70.00
2019-02-08T17:30:21.868Z,70.10
2019-02-08T17:31:30.014Z,70.14
2019-02-08T17:32:21.692Z,70.10
2019-02-08T17:33:21.862Z,70.00
2019-02-08T17:34:21.662Z,69.90
2019-02-08T17:35:21.645Z,69.93
2019-02-08T17:36:21.563Z,70.00
2019-02-08T17:37:22.324Z,70.10
2019-02-08T17:38:21.590Z,70.00
2019-02-08T17:39:21.573Z,70.04
2019-02-08T17:40:21.691Z,70.45
2019-02-08T17:41:21.577Z,70.55
2019-02-08T17:42:21.579Z,70.55
2019-02-08T17:43:30.887Z,70.55
2019-02-08T17:44:29.404Z,71.06
2019-02-08T17:46:38.117Z,71.37
2019-02-08T17:47:38.056Z,71.06
2019-02-08T17:48:39.019Z,71.06
2019-02-08T17:49:38.119Z,71.48
2019-02-08T17:50:38.035Z,71.00
2019-02-08T17:51:38.013Z,71.17
2019-02-08T17:52:37.986Z,70.89
2019-02-08T17:53:37.973Z,71.30
2019-02-08T17:54:38.020Z,71.00
2019-02-08T17:55:39.929Z,71.61
2019-02-08T17:56:37.962Z,71.51
2019-02-08T17:57:37.975Z,71.61
2019-02-08T17:58:37.972Z,71.51
2019-02-08T17:59:37.911Z,71.61
2019-02-08T18:00:37.942Z,71.61
2019-02-08T18:01:39.489Z,71.61
2019-02-08T18:02:37.915Z,71.72
2019-02-08T18:03:37.893Z,72.23
2019-02-08T18:04:38.147Z,71.72
2019-02-08T18:05:44.943Z,71.51
2019-02-08T18:06:40.586Z,71.41
2019-02-08T18:08:01.120Z,71.61
2019-02-08T18:08:37.852Z,71.61
2019-02-08T18:09:37.845Z,71.92
2019-02-08T18:10:37.863Z,71.61
2019-02-08T18:11:37.794Z,72.03
2019-02-08T18:12:37.795Z,72.23
2019-02-08T18:13:37.796Z,72.23
2019-02-08T18:14:37.793Z,71.82
2019-02-08T18:15:37.805Z,71.72
2019-02-08T18:16:37.722Z,71.72
2019-02-08T18:17:37.734Z,71.72
2019-02-08T18:18:37.734Z,72.23
2019-02-08T18:19:37.705Z,72.44
2019-02-08T18:20:37.740Z,72.33
2019-02-08T18:21:47.074Z,72.58
2019-02-08T18:22:46.074Z,72.13
2019-02-08T18:23:46.567Z,72.64
2019-02-08T18:24:45.549Z,72.27
2019-02-08T18:25:45.695Z,72.67
2019-02-08T18:26:37.609Z,72.27
2019-02-08T18:27:45.753Z,72.67
2019-02-08T18:28:45.511Z,72.58
2019-02-08T18:29:53.263Z,72.64
2019-02-08T18:32:09.332Z,72.99
2019-02-08T18:33:09.288Z,72.78
2019-02-08T18:34:09.277Z,72.78
2019-02-08T18:35:09.207Z,72.78
2019-02-08T18:36:09.268Z,72.88
2019-02-08T18:37:09.239Z,72.78
2019-02-08T18:38:09.260Z,72.58
2019-02-08T18:39:16.254Z,72.99
2019-02-08T18:40:17.120Z,72.88
2019-02-08T18:41:16.228Z,72.71
2019-02-08T18:42:19.231Z,72.92
2019-02-08T18:43:19.146Z,73.12
2019-02-08T18:44:20.166Z,73.02
2019-02-08T18:45:17.692Z,73.12
2019-02-08T18:46:17.146Z,73.43
2019-02-08T18:47:18.172Z,73.64
2019-02-08T18:48:09.180Z,73.33
2019-02-08T18:49:17.437Z,73.74
2019-02-08T18:50:17.801Z,73.36
2019-02-08T18:51:17.257Z,73.74
2019-02-08T18:52:17.297Z,73.74
2019-02-08T18:53:16.876Z,73.68
2019-02-08T18:54:17.880Z,73.47
2019-02-08T18:55:17.398Z,73.57
2019-02-08T18:56:16.489Z,74.08
2019-02-08T18:57:17.973Z,73.47
2019-02-08T18:58:19.122Z,73.98
2019-02-08T18:59:09.036Z,73.33
2019-02-08T19:00:09.556Z,73.77
2019-02-08T19:01:10.041Z,73.77
2019-02-08T19:02:09.042Z,73.98
2019-02-08T19:03:08.983Z,74.08
2019-02-08T19:04:08.972Z,73.77
2019-02-08T19:05:08.988Z,74.43
2019-02-08T19:06:09.031Z,74.12
2019-02-08T19:07:08.899Z,74.12
2019-02-08T19:08:08.907Z,74.22
2019-02-08T19:09:08.882Z,74.02
2019-02-08T19:10:08.843Z,74.08
2019-02-08T19:11:08.872Z,74.02
2019-02-08T19:12:08.885Z,74.02
2019-02-08T19:13:15.876Z,73.71
2019-02-08T19:14:17.623Z,74.63
2019-02-08T19:15:17.580Z,73.71
2019-02-08T19:16:08.959Z,74.33
2019-02-08T19:17:08.829Z,73.91
2019-02-08T19:18:09.524Z,73.71
2019-02-08T19:19:08.769Z,74.63
2019-02-08T19:20:08.771Z,74.22
2019-02-08T19:21:08.783Z,74.33
2019-02-08T19:22:08.789Z,74.26
2019-02-08T19:23:08.725Z,74.26
2019-02-08T19:24:09.457Z,74.33
2019-02-08T19:25:08.728Z,74.22
2019-02-08T19:26:08.736Z,74.22
2019-02-08T19:27:08.708Z,74.46
2019-02-08T19:28:08.743Z,74.15
2019-02-08T19:29:08.646Z,74.26
2019-02-08T19:30:16.554Z,74.36
2019-02-08T19:31:15.724Z,74.36
2019-02-08T19:32:17.622Z,74.36
2019-02-08T19:33:16.619Z,74.15
2019-02-08T19:34:08.656Z,74.36
2019-02-08T19:35:08.743Z,74.88
2019-02-08T19:36:08.698Z,74.77
2019-02-08T19:37:08.591Z,75.29
2019-02-08T19:38:08.600Z,75.60
2019-02-08T19:39:08.582Z,74.88
2019-02-08T19:40:08.546Z,75.70
2019-02-08T19:41:08.576Z,75.09
2019-02-08T19:42:08.599Z,75.09
2019-02-08T19:43:09.153Z,75.49
2019-02-08T19:44:08.524Z,75.39
2019-02-08T19:45:08.530Z,75.43
2019-02-08T19:46:08.514Z,75.39
2019-02-08T19:47:08.503Z,75.49
2019-02-08T19:48:11.366Z,75.01
2019-02-08T19:49:08.552Z,75.74
2019-02-08T19:51:38.526Z,74.91
2019-02-08T19:53:56.037Z,75.01
2019-02-08T19:54:56.127Z,75.74
2019-02-08T19:56:03.048Z,75.43
2019-02-08T19:56:56.090Z,75.32
2019-02-08T19:57:55.997Z,75.53
2019-02-08T19:58:56.084Z,75.12
2019-02-08T19:59:55.993Z,75.12
2019-02-08T20:02:14.149Z,75.01
2019-02-08T20:03:13.881Z,76.26
2019-02-08T20:04:13.799Z,76.22
2019-02-08T20:05:13.836Z,75.43
2019-02-08T20:06:13.803Z,76.05
2019-02-08T20:07:13.841Z,75.12
2019-02-08T20:08:13.787Z,75.22
2019-02-08T20:09:20.881Z,75.22
2019-02-08T20:10:13.893Z,75.12
2019-02-08T20:11:14.252Z,75.22
2019-02-08T20:12:14.089Z,75.32
2019-02-08T20:13:13.811Z,75.53
2019-02-08T20:14:14.006Z,75.22
2019-02-08T20:15:14.867Z,75.32
2019-02-08T20:16:13.938Z,75.22
2019-02-08T20:17:13.817Z,75.22
2019-02-08T20:18:13.772Z,75.22
2019-02-08T20:19:15.531Z,75.57
2019-02-08T20:20:13.710Z,75.12
2019-02-08T20:21:13.693Z,75.12
2019-02-08T20:22:13.810Z,75.43
2019-02-08T20:23:13.684Z,75.22
2019-02-08T20:24:13.672Z,76.05
2019-02-08T20:25:13.668Z,75.32
2019-02-08T20:26:13.643Z,76.05
2019-02-08T20:27:13.646Z,75.12
2019-02-08T20:28:13.611Z,75.22
2019-02-08T20:29:13.705Z,75.53
2019-02-08T20:30:13.736Z,76.36
2019-02-08T20:31:14.528Z,75.01
2019-02-08T20:32:13.573Z,75.43
2019-02-08T20:33:13.549Z,75.22
2019-02-08T20:34:14.441Z,75.26
2019-02-08T20:35:13.494Z,76.09
2019-02-08T20:36:13.481Z,75.32
2019-02-08T20:37:13.453Z,75.22
2019-02-08T20:38:13.438Z,75.26
2019-02-08T20:39:13.419Z,75.32
2019-02-08T20:40:13.498Z,75.43
2019-02-08T20:41:13.415Z,75.15
2019-02-08T20:42:13.469Z,75.43
2019-02-08T20:43:13.434Z,76.56
2019-02-08T20:44:13.726Z,75.22
2019-02-08T20:45:13.395Z,75.01
2019-02-08T20:46:13.365Z,75.32
2019-02-08T20:47:13.390Z,75.12
2019-02-08T20:48:13.358Z,75.84
2019-02-08T20:49:13.431Z,75.12
2019-02-08T20:50:14.878Z,75.01
2019-02-08T20:51:13.304Z,75.74
2019-02-08T20:52:14.910Z,75.53
2019-02-08T20:53:21.962Z,74.88
2019-02-08T20:54:13.437Z,75.95
2019-02-08T20:55:14.947Z,75.22
2019-02-08T20:56:20.300Z,75.74
2019-02-08T20:57:21.318Z,75.63
2019-02-08T20:58:13.952Z,75.74
2019-02-08T20:59:14.052Z,75.32
2019-02-08T21:00:13.224Z,74.81
2019-02-08T21:01:13.207Z,74.91
2019-02-08T21:02:20.265Z,75.95
2019-02-08T21:03:20.263Z,75.53
2019-02-08T21:04:23.118Z,75.95
2019-02-08T21:05:22.061Z,75.53
2019-02-08T21:06:13.159Z,75.74
2019-02-08T21:07:13.297Z,75.74
2019-02-08T21:08:13.184Z,75.01
2019-02-08T21:09:13.155Z,75.63
2019-02-08T21:10:13.194Z,75.43
2019-02-08T21:11:13.098Z,74.91
2019-02-08T21:12:13.102Z,75.43
2019-02-08T21:13:13.077Z,75.43
2019-02-08T21:14:22.136Z,75.01
2019-02-08T21:16:29.622Z,75.05
2019-02-08T21:17:29.659Z,75.12
2019-02-08T21:18:29.635Z,75.22
2019-02-08T21:19:29.605Z,75.32
2019-02-08T21:20:29.613Z,74.91
2019-02-08T21:21:29.616Z,75.22
2019-02-08T21:22:29.549Z,75.22
2019-02-08T21:23:29.530Z,75.26
2019-02-08T21:24:29.530Z,75.32
2019-02-08T21:25:30.491Z,75.12
2019-02-08T21:26:29.543Z,75.12
2019-02-08T21:27:33.021Z,75.88
2019-02-08T21:28:29.483Z,75.12
2019-02-08T21:29:29.489Z,75.26
2019-02-08T21:30:29.496Z,75.36
2019-02-08T21:31:36.537Z,75.36
2019-02-08T21:32:29.549Z,75.15
2019-02-08T21:33:29.424Z,75.26
2019-02-08T21:34:29.542Z,75.36
2019-02-08T21:35:29.425Z,75.78
2019-02-08T21:36:29.401Z,75.78
2019-02-08T21:37:29.417Z,75.88
2019-02-08T21:38:29.442Z,75.36
2019-02-08T21:39:29.443Z,75.78
2019-02-08T21:40:29.351Z,75.88
2019-02-08T21:41:29.355Z,75.57
2019-02-08T21:42:29.369Z,75.78
2019-02-08T21:43:29.300Z,75.67
2019-02-08T21:44:29.313Z,75.78
2019-02-08T21:45:29.314Z,76.09
2019-02-08T21:46:29.297Z,75.70
2019-02-08T21:47:29.330Z,76.18
2019-02-08T21:48:29.300Z,76.29
2019-02-08T21:49:29.248Z,76.43
2019-02-08T21:50:29.233Z,76.29
2019-02-08T21:51:29.236Z,76.74
2019-02-08T21:52:29.268Z,76.50
2019-02-08T21:53:29.213Z,76.22
2019-02-08T21:54:29.221Z,76.53
2019-02-08T21:55:36.231Z,76.84
2019-02-08T21:56:29.196Z,76.39
2019-02-08T21:57:29.246Z,76.22
2019-02-08T21:58:29.161Z,76.95
2019-02-08T21:59:29.158Z,76.95
2019-02-08T22:00:29.128Z,76.74
2019-02-08T22:01:29.118Z,76.43
2019-02-08T22:02:29.124Z,76.53
2019-02-08T22:03:29.103Z,76.53
2019-02-08T22:04:29.096Z,77.05
2019-02-08T22:05:29.085Z,76.53
2019-02-08T22:06:29.081Z,76.84
2019-02-08T22:07:29.082Z,76.22
2019-02-08T22:08:29.040Z,76.84
2019-02-08T22:09:29.050Z,76.12
2019-02-08T22:10:29.038Z,76.53
2019-02-08T22:11:29.029Z,76.32
2019-02-08T22:12:29.531Z,76.32
2019-02-08T22:13:29.001Z,76.12
2019-02-08T22:14:28.998Z,76.22
2019-02-08T22:15:28.982Z,76.53
2019-02-08T22:16:28.972Z,76.43
2019-02-08T22:17:28.990Z,76.43
2019-02-08T22:18:28.942Z,76.01
2019-02-08T22:19:28.926Z,76.12